createdAt,value
2019-05-22T00:02:43.125Z,99812.78
2019-05-22T00:07:46.799Z,99808.19
2019-05-22T00:12:49.302Z,99812.16
2019-05-22T00:17:53.694Z,99817.09
2019-05-22T00:22:56.700Z,99825.97
2019-05-22T00:27:59.378Z,99826.28
2019-05-22T00:33:02.170Z,99828.09
2019-05-22T00:38:06.712Z,99826.54
2019-05-22T00:43:13.731Z,99824.83
2019-05-22T00:48:16.158Z,99816.77
2019-05-22T00:53:28.232Z,99816.81
2019-05-22T00:58:34.734Z,99821.18
2019-05-22T01:03:38.276Z,99823.09
2019-05-22T01:08:41.708Z,99826.05
2019-05-22T01:13:45.726Z,99831.59
2019-05-22T01:18:49.514Z,99838.95
2019-05-22T01:23:55.084Z,99842.14
2019-05-22T01:28:58.775Z,99845.72
2019-05-22T01:34:21.383Z,99843.08
2019-05-22T01:39:42.369Z,99842.63
2019-05-22T01:44:59.703Z,99840.22
2019-05-22T01:49:53.545Z,99840.81
2019-05-22T01:54:57.221Z,99833.36
2019-05-22T02:00:00.472Z,99842.24
2019-05-22T02:05:04.783Z,99848.37
2019-05-22T02:10:12.829Z,99852.97
2019-05-22T02:15:17.239Z,99850.11
2019-05-22T02:20:19.914Z,99849.37
2019-05-22T02:25:23.301Z,99859.61
2019-05-22T02:30:26.724Z,99857.69
2019-05-22T02:35:30.310Z,99857.55
2019-05-22T02:40:36.804Z,99867.39
2019-05-22T02:45:39.432Z,99870.05
2019-05-22T02:50:41.977Z,99869.95
2019-05-22T02:55:44.666Z,99875.36
2019-05-22T03:00:56.762Z,99885.58
2019-05-22T03:05:59.785Z,99890.27
2019-05-22T03:11:02.433Z,99887.13
2019-05-22T03:16:05.703Z,99881.66
2019-05-22T03:21:08.419Z,99892.30
2019-05-22T03:26:12.597Z,99905.02
2019-05-22T03:31:15.911Z,99912.38
2019-05-22T03:36:21.726Z,99914.06
2019-05-22T03:41:23.798Z,99920.36
2019-05-22T03:46:39.488Z,99924.52
2019-05-22T03:51:43.967Z,99932.52
2019-05-22T03:56:47.291Z,99934.00
2019-05-22T04:01:50.660Z,99942.98
2019-05-22T04:06:54.078Z,99942.49
2019-05-22T04:11:57.490Z,99948.80
2019-05-22T04:17:00.307Z,99947.64
2019-05-22T04:22:03.315Z,99954.24
2019-05-22T04:27:06.356Z,99962.98
2019-05-22T04:32:18.048Z,99961.48
2019-05-22T04:37:20.506Z,99961.11
2019-05-22T04:42:24.357Z,99967.20
2019-05-22T04:47:26.562Z,99974.21
2019-05-22T04:52:30.507Z,99978.98
2019-05-22T04:57:32.808Z,99991.95
2019-05-22T05:02:35.556Z,99985.02
2019-05-22T05:07:38.654Z,99991.83
2019-05-22T05:12:42.015Z,99990.70
2019-05-22T05:17:44.554Z,99991.70
2019-05-22T05:22:52.589Z,99993.55
2019-05-22T05:27:58.466Z,99992.20
2019-05-22T05:33:01.573Z,100003.72
2019-05-22T05:38:05.520Z,99995.11
2019-05-22T05:43:11.581Z,99996.87
2019-05-22T05:48:17.214Z,100003.20
2019-05-22T05:53:21.975Z,100009.11
2019-05-22T05:58:28.146Z,100016.00
2019-05-22T06:03:40.821Z,100023.98
2019-05-22T06:08:45.395Z,100023.30
2019-05-22T06:13:49.066Z,100036.00
2019-05-22T06:18:56.946Z,100038.64
2019-05-22T06:24:25.016Z,100043.61
2019-05-22T06:29:49.220Z,100039.80
2019-05-22T06:34:52.090Z,100046.93
2019-05-22T06:39:55.565Z,100056.27
2019-05-22T06:44:58.002Z,100062.91
2019-05-22T06:50:01.262Z,100072.00
2019-05-22T06:55:03.946Z,100076.81
2019-05-22T07:00:19.969Z,100079.12
2019-05-22T07:05:23.391Z,100083.58
2019-05-22T07:10:26.746Z,100087.89
2019-05-22T07:16:01.700Z,100088.37
2019-05-22T07:21:06.015Z,100097.63
2019-05-22T07:26:08.776Z,100104.52
2019-05-22T07:31:11.158Z,100103.97
2019-05-22T07:36:17.299Z,100105.41
2019-05-22T07:41:19.915Z,100118.92
2019-05-22T07:46:23.046Z,100122.20
2019-05-22T07:51:25.436Z,100112.27
2019-05-22T07:56:29.677Z,100121.23
2019-05-22T08:01:34.132Z,100126.65
2019-05-22T08:06:36.612Z,100129.41
2019-05-22T08:11:39.412Z,100124.33
2019-05-22T08:16:42.143Z,100124.98
2019-05-22T08:21:44.276Z,100135.23
2019-05-22T08:26:54.315Z,100144.20
2019-05-22T08:31:52.873Z,100142.49
2019-05-22T08:36:55.400Z,100142.49
2019-05-22T08:41:57.529Z,100145.94
2019-05-22T08:47:00.624Z,100146.94
2019-05-22T08:52:04.090Z,100153.06
2019-05-22T08:57:08.398Z,100159.03
2019-05-22T09:02:11.792Z,100163.73
2019-05-22T09:07:13.886Z,100162.99
2019-05-22T09:12:16.367Z,100172.05
2019-05-22T09:17:18.652Z,100176.42
2019-05-22T09:22:21.103Z,100180.03
2019-05-22T09:27:23.394Z,100183.67
2019-05-22T09:32:25.718Z,100189.48
2019-05-22T09:37:28.287Z,100193.91
2019-05-22T09:42:32.054Z,100198.99
2019-05-22T09:47:35.470Z,100200.75
2019-05-22T09:52:37.801Z,100200.03
2019-05-22T09:57:40.158Z,100210.63
2019-05-22T10:02:42.887Z,100219.31
2019-05-22T10:07:59.029Z,100213.79
2019-05-22T10:12:50.943Z,100222.89
2019-05-22T10:17:53.662Z,100223.02
2019-05-22T10:22:55.857Z,100236.16
2019-05-22T10:27:59.484Z,100233.52
2019-05-22T10:33:01.854Z,100241.68
2019-05-22T10:38:04.635Z,100246.74
2019-05-22T10:43:07.067Z,100246.58
2019-05-22T10:48:09.708Z,100252.88
2019-05-22T10:53:12.219Z,100251.91
2019-05-22T10:58:17.388Z,100254.84
2019-05-22T11:03:20.814Z,100257.93
2019-05-22T11:08:24.114Z,100256.93
2019-05-22T11:13:26.622Z,100266.67
2019-05-22T11:18:29.218Z,100259.58
2019-05-22T11:23:31.812Z,100266.80
2019-05-22T11:28:34.110Z,100263.46
2019-05-22T11:33:36.448Z,100262.26
2019-05-22T11:38:38.528Z,100259.00
2019-05-22T11:43:41.504Z,100269.55
2019-05-22T11:48:43.663Z,100271.39
2019-05-22T11:53:46.264Z,100272.84
2019-05-22T11:58:48.897Z,100270.87
2019-05-22T12:03:51.439Z,100281.98
2019-05-22T12:08:53.621Z,100285.23
2019-05-22T12:13:55.705Z,100286.92
2019-05-22T12:18:59.074Z,100292.02
2019-05-22T12:24:01.522Z,100296.03
2019-05-22T12:29:04.122Z,100302.09
2019-05-22T12:34:06.484Z,100298.80
2019-05-22T12:39:09.902Z,100307.38
2019-05-22T12:44:13.609Z,100311.88
2019-05-22T12:49:17.582Z,100305.42
2019-05-22T12:54:19.665Z,100309.80
2019-05-22T12:59:24.842Z,100324.59
2019-05-22T13:04:29.617Z,100329.96
2019-05-22T13:09:31.804Z,100329.80
2019-05-22T13:14:34.478Z,100341.13
2019-05-22T13:19:37.340Z,100336.32
2019-05-22T13:24:40.589Z,100341.45
2019-05-22T13:29:47.946Z,100342.64
2019-05-22T13:34:53.416Z,100348.09
2019-05-22T13:39:57.908Z,100350.12
2019-05-22T13:45:03.626Z,100352.81
2019-05-22T13:50:06.728Z,100368.98
2019-05-22T13:55:09.776Z,100371.50
2019-05-22T14:00:16.572Z,100369.02
2019-05-22T14:05:19.332Z,100378.11
2019-05-22T14:10:22.980Z,100382.08
2019-05-22T14:15:25.776Z,100386.09
2019-05-22T14:20:28.399Z,100387.89
2019-05-22T14:25:31.073Z,100398.47
2019-05-22T14:30:33.165Z,100391.72
2019-05-22T14:35:48.516Z,100388.08
2019-05-22T14:40:44.249Z,100385.91
2019-05-22T14:45:46.593Z,100387.77
2019-05-22T14:50:48.634Z,100384.45
2019-05-22T14:55:54.580Z,100383.48
2019-05-22T15:00:56.764Z,100389.27
2019-05-22T15:05:59.237Z,100396.36
2019-05-22T15:11:01.536Z,100405.80
2019-05-22T15:16:03.657Z,100403.02
2019-05-22T15:21:13.060Z,100400.52
2019-05-22T15:26:16.175Z,100412.09
2019-05-22T15:31:26.336Z,100400.33
2019-05-22T15:36:28.550Z,100407.59
2019-05-22T15:41:32.206Z,100408.59
2019-05-22T15:46:35.462Z,100403.40
2019-05-22T15:51:39.662Z,100402.22
2019-05-22T15:56:43.461Z,100394.56
2019-05-22T16:01:46.711Z,100406.42
2019-05-22T16:06:49.935Z,100413.17
2019-05-22T16:11:53.719Z,100416.50
2019-05-22T16:16:57.094Z,100416.82
2019-05-22T16:22:02.898Z,100418.19
2019-05-22T16:27:08.892Z,100430.59
2019-05-22T16:32:13.848Z,100422.81
2019-05-22T16:37:19.766Z,100420.84
2019-05-22T16:42:22.929Z,100420.63
2019-05-22T16:47:25.615Z,100418.12
2019-05-22T16:52:28.641Z,100422.09
2019-05-22T16:57:32.324Z,100428.08
2019-05-22T17:02:36.153Z,100424.59
2019-05-22T17:07:41.386Z,100434.05
2019-05-22T17:12:45.907Z,100434.87
2019-05-22T17:17:48.759Z,100434.00
2019-05-22T17:22:52.840Z,100439.97
2019-05-22T17:27:57.124Z,100438.32
2019-05-22T17:33:00.103Z,100434.88
2019-05-22T17:38:06.428Z,100435.39
2019-05-22T17:43:09.969Z,100435.86
2019-05-22T17:48:17.540Z,100441.33
2019-05-22T17:53:20.377Z,100441.22
2019-05-22T17:58:30.149Z,100442.70
2019-05-22T18:03:32.639Z,100448.00
2019-05-22T18:08:36.327Z,100446.69
2019-05-22T18:13:59.268Z,100453.01
2019-05-22T18:19:01.875Z,100460.13
2019-05-22T18:24:04.719Z,100465.91
2019-05-22T18:29:09.582Z,100466.27
2019-05-22T18:34:11.860Z,100471.23
2019-05-22T18:39:23.363Z,100474.03
2019-05-22T18:44:25.534Z,100483.16
2019-05-22T18:49:27.589Z,100486.77
2019-05-22T18:54:29.706Z,100497.02
2019-05-22T18:59:31.750Z,100508.12
2019-05-22T19:04:33.940Z,100504.64
2019-05-22T19:09:36.263Z,100506.64
2019-05-22T19:14:38.808Z,100516.88
2019-05-22T19:19:41.145Z,100518.02
2019-05-22T19:24:43.240Z,100522.48
2019-05-22T19:29:45.294Z,100521.81
2019-05-22T19:34:47.240Z,100524.64
2019-05-22T19:39:50.362Z,100536.03
2019-05-22T19:44:53.106Z,100539.45
2019-05-22T19:49:55.244Z,100545.55
2019-05-22T19:54:58.474Z,100533.84
2019-05-22T20:00:02.982Z,100544.56
2019-05-22T20:05:07.044Z,100543.09
2019-05-22T20:10:09.577Z,100542.26
2019-05-22T20:15:12.092Z,100547.21
2019-05-22T20:20:16.797Z,100544.39
2019-05-22T20:25:21.549Z,100544.06
2019-05-22T20:30:24.069Z,100546.04
2019-05-22T20:35:26.458Z,100537.12
2019-05-22T20:40:29.739Z,100538.45
2019-05-22T20:45:33.069Z,100537.64
2019-05-22T20:50:35.880Z,100532.98
2019-05-22T20:55:39.642Z,100538.78
2019-05-22T21:00:43.016Z,100535.14
2019-05-22T21:05:45.337Z,100536.44
2019-05-22T21:10:47.986Z,100538.41
2019-05-22T21:15:51.775Z,100542.84
2019-05-22T21:20:55.625Z,100542.79
2019-05-22T21:25:57.948Z,100550.70
2019-05-22T21:31:02.219Z,100549.34
2019-05-22T21:36:05.698Z,100561.99
2019-05-22T21:41:08.512Z,100558.36
2019-05-22T21:46:11.949Z,100563.77
2019-05-22T21:51:15.213Z,100574.42
2019-05-22T21:56:17.363Z,100578.50
2019-05-22T22:01:39.735Z,100579.64
2019-05-22T22:06:42.381Z,100588.83
2019-05-22T22:11:45.049Z,100587.30
2019-05-22T22:16:47.878Z,100589.58
2019-05-22T22:21:50.457Z,100587.05
2019-05-22T22:26:53.262Z,100596.59
2019-05-22T22:31:57.681Z,100589.30
2019-05-22T22:37:00.537Z,100590.40
2019-05-22T22:42:04.867Z,100594.61
2019-05-22T22:47:13.910Z,100592.28
2019-05-22T22:52:18.750Z,100590.73
2019-05-22T22:57:21.729Z,100590.06
2019-05-22T23:02:28.957Z,100602.38
2019-05-22T23:07:34.102Z,100601.70
2019-05-22T23:12:38.081Z,100606.44
2019-05-22T23:17:42.069Z,100606.06
2019-05-22T23:22:43.448Z,100614.75
2019-05-22T23:27:45.921Z,100614.38
2019-05-22T23:33:09.847Z,100618.30
2019-05-22T23:38:12.620Z,100621.98
2019-05-22T23:43:15.002Z,100626.00
2019-05-22T23:48:17.340Z,100629.37
2019-05-22T23:53:22.657Z,100633.08
2019-05-22T23:58:25.638Z,100625.91
